createdAt,value
2023-04-08T00:02:06.635Z,23.52
2023-04-08T00:04:35.211Z,23.38
2023-04-08T00:07:03.559Z,23.25
2023-04-08T00:09:31.773Z,23.80
2023-04-08T00:12:01.303Z,23.83
2023-04-08T00:14:29.605Z,24.70
2023-04-08T00:16:57.855Z,23.58
2023-04-08T00:19:26.423Z,23.70
2023-04-08T00:21:54.792Z,21.33
2023-04-08T00:24:23.049Z,21.95
2023-04-08T00:26:51.799Z,18.77
2023-04-08T00:29:20.110Z,17.23
2023-04-08T00:31:48.804Z,15.25
2023-04-08T00:34:17.455Z,15.88
2023-04-08T00:36:47.607Z,15.05
2023-04-08T00:39:15.865Z,18.00
2023-04-08T00:41:44.176Z,16.33
2023-04-08T00:44:12.543Z,16.48
2023-04-08T00:46:41.324Z,17.77
2023-04-08T00:49:10.058Z,17.10
2023-04-08T00:51:38.352Z,16.75
2023-04-08T00:54:06.747Z,15.73
2023-04-08T00:56:35.956Z,17.83
2023-04-08T00:59:05.149Z,17.58
2023-04-08T01:01:44.656Z,17.42
2023-04-08T01:04:13.072Z,17.65
2023-04-08T01:06:58.334Z,17.25
2023-04-08T01:09:32.373Z,16.35
2023-04-08T01:12:05.951Z,18.05
2023-04-08T01:14:40.084Z,17.08
2023-04-08T01:17:09.581Z,17.38
2023-04-08T01:19:44.983Z,17.40
2023-04-08T01:22:43.496Z,16.40
2023-04-08T01:25:27.478Z,17.10
2023-04-08T01:27:57.688Z,17.77
2023-04-08T01:30:27.314Z,18.23
2023-04-08T01:32:56.879Z,16.65
2023-04-08T01:35:25.433Z,16.67
2023-04-08T01:37:55.755Z,16.70
2023-04-08T01:40:24.304Z,15.50
2023-04-08T01:42:56.259Z,17.45
2023-04-08T01:45:25.265Z,15.75
2023-04-08T01:47:55.381Z,17.80
2023-04-08T01:50:25.234Z,19.20
2023-04-08T01:52:54.907Z,20.55
2023-04-08T01:55:24.768Z,20.30
2023-04-08T01:57:56.264Z,19.25
2023-04-08T02:00:29.123Z,19.70
2023-04-08T02:02:59.842Z,19.83
2023-04-08T02:05:28.362Z,19.38
2023-04-08T02:07:56.607Z,20.25
2023-04-08T02:10:24.874Z,17.65
2023-04-08T02:12:53.189Z,19.48
2023-04-08T02:15:21.984Z,18.52
2023-04-08T02:18:00.147Z,18.40
2023-04-08T02:20:37.717Z,19.15
2023-04-08T02:23:16.553Z,17.00
2023-04-08T02:25:47.094Z,18.83
2023-04-08T02:28:18.148Z,18.05
2023-04-08T02:30:53.479Z,17.73
2023-04-08T02:33:23.437Z,18.55
2023-04-08T02:35:56.089Z,17.75
2023-04-08T02:38:29.833Z,16.98
2023-04-08T02:40:58.741Z,17.42
2023-04-08T02:43:31.837Z,17.50
2023-04-08T02:46:03.455Z,18.95
2023-04-08T02:48:33.311Z,18.42
2023-04-08T02:51:01.558Z,16.83
2023-04-08T02:53:29.921Z,17.45
2023-04-08T02:55:58.284Z,17.73
2023-04-08T02:58:26.553Z,18.08
2023-04-08T03:00:55.013Z,18.42
2023-04-08T03:03:29.720Z,18.10
2023-04-08T03:05:58.499Z,19.23
2023-04-08T03:08:26.729Z,21.10
2023-04-08T03:10:55.075Z,19.58
2023-04-08T03:13:23.326Z,21.40
2023-04-08T03:15:51.589Z,20.10
2023-04-08T03:18:19.852Z,22.00
2023-04-08T03:20:48.247Z,22.02
2023-04-08T03:23:16.613Z,20.83
2023-04-08T03:25:44.909Z,20.42
2023-04-08T03:28:13.153Z,20.75
2023-04-08T03:30:41.641Z,22.27
2023-04-08T03:33:09.938Z,21.17
2023-04-08T03:35:39.112Z,20.42
2023-04-08T03:38:07.390Z,21.42
2023-04-08T03:40:35.818Z,20.92
2023-04-08T03:43:05.807Z,20.95
2023-04-08T03:45:34.228Z,20.67
2023-04-08T03:48:02.592Z,21.13
2023-04-08T03:50:30.872Z,19.10
2023-04-08T03:52:59.085Z,19.35
2023-04-08T03:55:27.317Z,19.70
2023-04-08T03:57:55.749Z,19.08
2023-04-08T04:00:24.051Z,18.85
2023-04-08T04:02:52.412Z,19.20
2023-04-08T04:05:20.893Z,19.60
2023-04-08T04:07:49.293Z,19.58
2023-04-08T04:10:17.621Z,19.77
2023-04-08T04:12:46.180Z,19.60
2023-04-08T04:15:14.834Z,18.70
2023-04-08T04:17:43.142Z,20.00
2023-04-08T04:20:11.839Z,18.90
2023-04-08T04:22:40.075Z,19.27
2023-04-08T04:25:08.838Z,20.73
2023-04-08T04:27:37.166Z,19.63
2023-04-08T04:30:07.278Z,20.48
2023-04-08T04:32:35.748Z,21.75
2023-04-08T04:35:04.243Z,21.13
2023-04-08T04:37:32.511Z,19.17
2023-04-08T04:40:00.855Z,21.83
2023-04-08T04:42:29.322Z,21.23
2023-04-08T04:44:57.582Z,21.48
2023-04-08T04:47:26.361Z,22.52
2023-04-08T04:49:54.615Z,22.65
2023-04-08T04:52:22.916Z,22.13
2023-04-08T04:54:51.223Z,22.58
2023-04-08T04:57:19.472Z,23.33
2023-04-08T04:59:47.756Z,22.80
2023-04-08T05:02:16.507Z,24.02
2023-04-08T05:04:44.850Z,23.30
2023-04-08T05:07:13.091Z,23.45
2023-04-08T05:09:41.280Z,23.98
2023-04-08T05:12:09.566Z,23.90
2023-04-08T05:14:37.794Z,22.33
2023-04-08T05:17:06.586Z,24.17
2023-04-08T05:19:34.813Z,22.05
2023-04-08T05:22:03.072Z,21.17
2023-04-08T05:24:31.444Z,21.50
2023-04-08T05:26:59.685Z,21.13
2023-04-08T05:29:27.905Z,20.15
2023-04-08T05:31:56.653Z,21.98
2023-04-08T05:34:25.001Z,20.67
2023-04-08T05:36:53.251Z,20.80
2023-04-08T05:39:21.501Z,19.90
2023-04-08T05:41:49.786Z,20.60
2023-04-08T05:44:18.012Z,21.00
2023-04-08T05:46:46.401Z,21.23
2023-04-08T05:49:15.769Z,20.75
2023-04-08T05:51:44.289Z,20.45
2023-04-08T05:54:12.813Z,21.05
2023-04-08T05:56:41.039Z,21.77
2023-04-08T05:59:09.360Z,22.48
2023-04-08T06:01:37.630Z,23.75
2023-04-08T06:04:06.269Z,21.98
2023-04-08T06:06:34.781Z,21.92
2023-04-08T06:09:02.982Z,22.20
2023-04-08T06:11:31.287Z,21.92
2023-04-08T06:13:59.500Z,21.10
2023-04-08T06:16:27.816Z,22.73
2023-04-08T06:18:56.310Z,21.08
2023-04-08T06:21:24.537Z,22.02
2023-04-08T06:23:52.738Z,21.33
2023-04-08T06:26:20.948Z,22.38
2023-04-08T06:28:49.478Z,21.77
2023-04-08T06:31:18.102Z,21.48
2023-04-08T06:33:46.328Z,21.15
2023-04-08T06:36:14.601Z,20.23
2023-04-08T06:38:42.772Z,22.80
2023-04-08T06:41:11.006Z,21.73
2023-04-08T06:43:39.221Z,21.73
2023-04-08T06:46:07.721Z,21.92
2023-04-08T06:48:37.807Z,22.10
2023-04-08T06:51:07.918Z,21.42
2023-04-08T06:53:36.171Z,20.40
2023-04-08T06:56:04.622Z,22.55
2023-04-08T06:58:32.878Z,21.80
2023-04-08T07:01:03.194Z,21.17
2023-04-08T07:03:31.589Z,22.10
2023-04-08T07:05:59.863Z,21.05
2023-04-08T07:08:28.100Z,21.75
2023-04-08T07:10:56.713Z,22.58
2023-04-08T07:13:24.987Z,21.08
2023-04-08T07:15:53.414Z,21.63
2023-04-08T07:18:21.863Z,21.23
2023-04-08T07:20:57.954Z,21.17
2023-04-08T07:23:26.263Z,21.60
2023-04-08T07:25:54.626Z,22.77
2023-04-08T07:28:22.837Z,21.75
2023-04-08T07:30:51.086Z,21.75
2023-04-08T07:33:19.842Z,21.27
2023-04-08T07:35:48.532Z,21.25
2023-04-08T07:38:16.803Z,22.73
2023-04-08T07:40:45.251Z,22.25
2023-04-08T07:43:13.495Z,22.77
2023-04-08T07:45:41.757Z,22.83
2023-04-08T07:48:10.117Z,21.67
2023-04-08T07:51:08.936Z,22.73
2023-04-08T07:53:27.801Z,22.52
2023-04-08T07:55:56.081Z,24.10
2023-04-08T07:58:25.005Z,22.33
2023-04-08T08:00:54.085Z,22.85
2023-04-08T08:03:22.573Z,22.20
2023-04-08T08:05:50.874Z,22.30
2023-04-08T08:08:19.071Z,22.83
2023-04-08T08:10:47.396Z,23.73
2023-04-08T08:13:17.405Z,23.33
2023-04-08T08:15:45.839Z,23.35
2023-04-08T08:18:14.373Z,21.60
2023-04-08T08:20:42.732Z,24.55
2023-04-08T08:23:11.177Z,23.83
2023-04-08T08:25:39.378Z,24.90
2023-04-08T08:28:07.631Z,23.83
2023-04-08T08:30:35.892Z,23.23
2023-04-08T08:33:04.314Z,26.67
2023-04-08T08:35:32.850Z,23.23
2023-04-08T08:38:01.278Z,23.20
2023-04-08T08:40:29.548Z,24.95
2023-04-08T08:42:59.228Z,23.73
2023-04-08T08:45:27.563Z,23.80
2023-04-08T08:47:56.411Z,24.45
2023-04-08T08:50:24.704Z,23.83
2023-04-08T08:52:53.801Z,23.88
2023-04-08T08:55:41.444Z,22.08
2023-04-08T08:58:10.753Z,23.17
2023-04-08T09:00:42.391Z,21.42
2023-04-08T09:03:18.003Z,24.05
2023-04-08T09:05:50.348Z,24.00
2023-04-08T09:08:44.883Z,21.83
2023-04-08T09:11:18.419Z,25.73
2023-04-08T09:13:47.809Z,23.30
2023-04-08T09:16:18.467Z,24.63
2023-04-08T09:18:49.172Z,24.17
2023-04-08T09:21:22.466Z,22.95
2023-04-08T09:23:52.705Z,23.50
2023-04-08T09:26:25.335Z,25.17
2023-04-08T09:29:18.432Z,26.23
2023-04-08T09:31:58.419Z,23.13
2023-04-08T09:34:29.012Z,24.20
2023-04-08T09:36:57.262Z,24.02
2023-04-08T09:39:25.461Z,24.38
2023-04-08T09:41:57.784Z,24.23
2023-04-08T09:44:28.837Z,25.27
2023-04-08T09:47:01.911Z,25.63
2023-04-08T09:49:49.391Z,26.08
2023-04-08T09:52:47.217Z,24.92
2023-04-08T09:55:18.091Z,26.45
2023-04-08T09:58:03.016Z,23.70
2023-04-08T10:00:43.960Z,24.42
2023-04-08T10:03:25.028Z,24.88
2023-04-08T10:05:58.611Z,26.10
2023-04-08T10:10:56.399Z,25.65
2023-04-08T10:13:28.676Z,26.33
2023-04-08T10:16:22.156Z,28.00
2023-04-08T10:18:53.091Z,25.33
2023-04-08T10:21:59.706Z,24.27
2023-04-08T10:24:28.246Z,23.83
2023-04-08T10:26:56.562Z,27.60
2023-04-08T10:29:27.448Z,25.45
2023-04-08T10:31:57.529Z,26.42
2023-04-08T10:34:27.393Z,25.75
2023-04-08T10:36:59.058Z,27.17
2023-04-08T10:39:27.599Z,26.52
2023-04-08T10:41:56.509Z,27.13
2023-04-08T10:44:28.909Z,26.83
2023-04-08T10:46:57.823Z,24.05
2023-04-08T10:49:34.494Z,24.38
2023-04-08T10:52:08.070Z,24.48
2023-04-08T10:54:37.071Z,23.40
2023-04-08T10:57:06.025Z,23.88
2023-04-08T10:59:34.325Z,24.40
2023-04-08T11:02:02.911Z,24.33
2023-04-08T11:04:31.621Z,25.08
2023-04-08T11:07:00.092Z,24.40
2023-04-08T11:09:28.343Z,23.13
2023-04-08T11:11:56.871Z,23.63
2023-04-08T11:14:26.810Z,23.63
2023-04-08T11:16:55.138Z,24.98
2023-04-08T11:19:24.705Z,24.52
2023-04-08T11:21:53.394Z,24.80
2023-04-08T11:24:22.432Z,24.88
2023-04-08T11:26:51.030Z,23.40
2023-04-08T11:29:19.569Z,22.55
2023-04-08T11:31:49.681Z,23.10
2023-04-08T11:34:25.385Z,20.83
2023-04-08T11:36:53.717Z,22.85
2023-04-08T11:39:24.216Z,22.83
2023-04-08T11:41:53.462Z,22.88
2023-04-08T11:44:32.119Z,22.80
2023-04-08T11:47:02.264Z,20.98
2023-04-08T11:49:45.374Z,23.13
2023-04-08T11:52:13.967Z,22.58
2023-04-08T11:55:00.872Z,22.13
2023-04-08T11:57:30.294Z,21.25
2023-04-08T11:59:58.953Z,21.27
2023-04-08T12:02:27.526Z,20.85
2023-04-08T12:04:55.871Z,21.40
2023-04-08T12:07:24.090Z,23.02
2023-04-08T12:09:52.611Z,20.00
2023-04-08T12:12:20.900Z,20.85
2023-04-08T12:14:49.215Z,20.77
2023-04-08T12:17:17.590Z,20.65
2023-04-08T12:19:46.250Z,20.90
2023-04-08T12:22:14.572Z,21.05
2023-04-08T12:24:42.863Z,19.48
2023-04-08T12:27:11.218Z,19.63
2023-04-08T12:29:40.024Z,20.15
2023-04-08T12:32:08.468Z,18.45
2023-04-08T12:34:37.016Z,17.90
2023-04-08T12:37:05.921Z,17.52
2023-04-08T12:39:34.107Z,16.40
2023-04-08T12:42:02.382Z,17.38
2023-04-08T12:44:30.864Z,18.42
2023-04-08T12:46:59.119Z,16.70
2023-04-08T12:49:28.206Z,17.73
2023-04-08T12:51:56.455Z,19.52
2023-04-08T12:54:24.748Z,18.58
2023-04-08T12:56:52.949Z,18.77
2023-04-08T12:59:21.185Z,17.00
2023-04-08T13:01:49.463Z,17.38
2023-04-08T13:04:18.077Z,17.05
2023-04-08T13:06:46.516Z,17.23
2023-04-08T13:09:15.287Z,16.27
2023-04-08T13:11:43.504Z,16.17
2023-04-08T13:14:13.726Z,16.25
2023-04-08T13:16:41.998Z,16.98
2023-04-08T13:19:10.348Z,17.35
2023-04-08T13:21:38.646Z,15.75
2023-04-08T13:24:07.265Z,16.42
2023-04-08T13:26:35.679Z,15.48
2023-04-08T13:29:04.187Z,16.45
2023-04-08T13:31:32.879Z,16.38
2023-04-08T13:34:01.211Z,16.65
2023-04-08T13:36:29.552Z,16.67
2023-04-08T13:38:57.933Z,15.60
2023-04-08T13:41:28.049Z,15.90
2023-04-08T13:43:56.876Z,15.68
2023-04-08T13:46:25.273Z,16.55
2023-04-08T13:48:54.591Z,15.02
2023-04-08T13:51:23.073Z,14.77
2023-04-08T13:53:51.319Z,16.45
2023-04-08T13:56:19.625Z,16.10
2023-04-08T13:58:55.205Z,16.33
2023-04-08T14:01:26.624Z,15.93
2023-04-08T14:03:54.960Z,16.05
2023-04-08T14:06:23.286Z,15.98
2023-04-08T14:08:51.748Z,17.15
2023-04-08T14:11:21.369Z,17.38
2023-04-08T14:13:49.761Z,17.13
2023-04-08T14:16:18.115Z,15.32
2023-04-08T14:18:46.805Z,16.42
2023-04-08T14:21:16.141Z,15.98
2023-04-08T14:23:44.373Z,16.10
2023-04-08T14:26:12.677Z,15.07
2023-04-08T14:28:41.075Z,15.32
2023-04-08T14:31:09.490Z,13.95
2023-04-08T14:33:39.187Z,13.07
2023-04-08T14:36:08.306Z,13.65
2023-04-08T14:38:36.757Z,13.35
2023-04-08T14:41:05.039Z,13.65
2023-04-08T14:43:33.274Z,13.45
2023-04-08T14:46:01.616Z,14.98
2023-04-08T14:48:30.855Z,13.05
2023-04-08T14:51:00.076Z,13.85
2023-04-08T14:53:28.296Z,14.57
2023-04-08T14:55:56.748Z,14.88
2023-04-08T14:58:25.043Z,14.13
2023-04-08T15:00:53.429Z,13.95
2023-04-08T15:03:22.810Z,13.45
2023-04-08T15:05:58.567Z,13.88
2023-04-08T15:08:27.167Z,13.63
2023-04-08T15:10:55.479Z,12.98
2023-04-08T15:13:23.785Z,13.32
2023-04-08T15:15:52.102Z,11.70
2023-04-08T15:18:20.449Z,10.35
2023-04-08T15:20:48.713Z,7.55
2023-04-08T15:23:17.314Z,6.55
2023-04-08T15:25:46.397Z,5.50
2023-04-08T15:28:14.717Z,5.60
2023-04-08T15:30:44.380Z,10.15
2023-04-08T15:33:12.712Z,11.07
2023-04-08T15:35:41.231Z,8.43
2023-04-08T15:38:09.494Z,8.55
2023-04-08T15:40:37.756Z,7.03
2023-04-08T15:43:06.022Z,6.85
2023-04-08T15:45:34.305Z,5.38
2023-04-08T15:48:02.689Z,5.25
2023-04-08T15:50:31.479Z,7.20
2023-04-08T15:52:59.849Z,7.88
2023-04-08T15:55:28.152Z,8.48
2023-04-08T15:57:57.225Z,9.20
2023-04-08T16:00:26.020Z,9.93
2023-04-08T16:02:54.417Z,9.82
2023-04-08T16:05:22.930Z,9.98
2023-04-08T16:07:51.233Z,10.18
2023-04-08T16:10:19.505Z,11.32
2023-04-08T16:12:47.806Z,12.40
2023-04-08T16:15:16.342Z,12.45
2023-04-08T16:17:49.698Z,11.77
2023-04-08T16:22:50.110Z,11.77
2023-04-08T16:25:18.519Z,11.65
2023-04-08T16:27:47.794Z,12.80
2023-04-08T16:30:16.080Z,12.32
2023-04-08T16:32:44.496Z,12.68
2023-04-08T16:35:13.343Z,11.90
2023-04-08T16:37:41.605Z,11.80
2023-04-08T16:40:10.342Z,11.73
2023-04-08T16:42:38.566Z,12.50
2023-04-08T16:45:07.599Z,14.43
2023-04-08T16:47:35.872Z,13.63
2023-04-08T16:50:05.458Z,12.75
2023-04-08T16:52:33.944Z,12.77
2023-04-08T16:55:02.394Z,13.15
2023-04-08T16:57:30.695Z,12.20
2023-04-08T16:59:59.038Z,11.50
2023-04-08T17:02:27.571Z,12.45
2023-04-08T17:04:56.539Z,12.73
2023-04-08T17:07:25.552Z,10.95
2023-04-08T17:09:56.286Z,12.75
2023-04-08T17:12:24.763Z,12.25
2023-04-08T17:14:53.040Z,12.10
2023-04-08T17:17:21.233Z,12.68
2023-04-08T17:19:49.424Z,11.68
2023-04-08T17:22:17.702Z,12.77
2023-04-08T17:24:47.845Z,12.32
2023-04-08T17:27:16.700Z,12.35
2023-04-08T17:29:45.452Z,10.50
2023-04-08T17:32:13.727Z,12.50
2023-04-08T17:34:42.033Z,12.68
2023-04-08T17:37:10.403Z,11.98
2023-04-08T17:39:40.788Z,12.82
2023-04-08T17:42:09.846Z,11.88
2023-04-08T17:44:38.484Z,12.23
2023-04-08T17:47:06.709Z,11.52
2023-04-08T17:49:35.164Z,10.88
2023-04-08T17:52:03.536Z,11.77
2023-04-08T17:54:34.477Z,12.48
2023-04-08T17:57:03.223Z,12.57
2023-04-08T17:59:31.594Z,12.30
2023-04-08T18:01:59.987Z,12.55
2023-04-08T18:04:29.856Z,13.07
2023-04-08T18:06:58.123Z,12.95
2023-04-08T18:09:26.345Z,14.00
2023-04-08T18:11:54.524Z,13.93
2023-04-08T18:14:22.750Z,14.18
2023-04-08T18:16:51.000Z,15.20
2023-04-08T18:19:19.700Z,13.13
2023-04-08T18:21:47.971Z,15.15
2023-04-08T18:24:16.244Z,15.00
2023-04-08T18:26:45.440Z,14.25
2023-04-08T18:29:17.739Z,13.27
2023-04-08T18:31:46.171Z,13.68
2023-04-08T18:34:14.445Z,12.43
2023-04-08T18:36:42.680Z,12.00
2023-04-08T18:39:11.860Z,12.52
2023-04-08T18:41:40.156Z,13.73
2023-04-08T18:44:08.409Z,13.02
2023-04-08T18:46:36.915Z,13.60
2023-04-08T18:49:05.171Z,13.63
2023-04-08T18:51:34.229Z,13.90
2023-04-08T18:54:02.632Z,12.48
2023-04-08T18:56:31.611Z,14.00
2023-04-08T18:58:59.908Z,14.07
2023-04-08T19:01:31.187Z,14.43
2023-04-08T19:03:59.602Z,15.27
2023-04-08T19:06:28.603Z,14.88
2023-04-08T19:08:56.803Z,14.43
2023-04-08T19:11:28.873Z,13.65
2023-04-08T19:13:57.363Z,13.70
2023-04-08T19:16:26.207Z,15.27
2023-04-08T19:18:54.931Z,14.27
2023-04-08T19:21:23.657Z,15.88
2023-04-08T19:23:52.098Z,16.48
2023-04-08T19:26:21.061Z,14.77
2023-04-08T19:28:49.688Z,14.95
2023-04-08T19:31:18.864Z,15.70
2023-04-08T19:33:47.221Z,14.05
2023-04-08T19:36:15.624Z,16.27
2023-04-08T19:38:43.845Z,15.07
2023-04-08T19:41:12.762Z,15.60
2023-04-08T19:43:41.235Z,15.43
2023-04-08T19:46:09.565Z,16.23
2023-04-08T19:48:38.834Z,15.15
2023-04-08T19:51:08.289Z,14.95
2023-04-08T19:53:36.727Z,15.18
2023-04-08T19:56:05.085Z,15.82
2023-04-08T19:58:33.306Z,15.68
2023-04-08T20:01:02.783Z,15.82
2023-04-08T20:03:31.223Z,14.95
2023-04-08T20:05:59.550Z,15.38
2023-04-08T20:08:28.163Z,15.10
2023-04-08T20:10:56.416Z,14.50
2023-04-08T20:13:24.663Z,14.70
2023-04-08T20:15:53.285Z,15.05
2023-04-08T20:18:21.806Z,15.43
2023-04-08T20:20:50.470Z,15.48
2023-04-08T20:23:18.849Z,14.20
2023-04-08T20:25:47.538Z,15.23
2023-04-08T20:28:15.810Z,14.15
2023-04-08T20:30:44.285Z,14.07
2023-04-08T20:33:12.958Z,14.85
2023-04-08T20:35:41.498Z,15.50
2023-04-08T20:38:10.131Z,14.73
2023-04-08T20:40:44.184Z,14.02
2023-04-08T20:43:12.562Z,15.18
2023-04-08T20:45:41.221Z,15.32
2023-04-08T20:48:09.803Z,15.38
2023-04-08T20:50:38.736Z,14.63
2023-04-08T20:53:07.474Z,13.88
2023-04-08T20:55:35.704Z,13.10
2023-04-08T20:58:07.528Z,14.52
2023-04-08T21:00:36.003Z,13.98
2023-04-08T21:03:04.435Z,13.35
2023-04-08T21:05:36.641Z,12.27
2023-04-08T21:08:05.069Z,12.98
2023-04-08T21:10:33.326Z,13.10
2023-04-08T21:13:01.635Z,13.50
2023-04-08T21:15:30.167Z,13.57
2023-04-08T21:17:58.516Z,13.70
2023-04-08T21:20:26.774Z,13.57
2023-04-08T21:22:55.033Z,14.55
2023-04-08T21:25:23.315Z,13.05
2023-04-08T21:27:51.710Z,13.25
2023-04-08T21:30:21.448Z,12.85
2023-04-08T21:32:49.868Z,13.45
2023-04-08T21:35:18.114Z,12.90
2023-04-08T21:37:46.744Z,13.10
2023-04-08T21:40:14.990Z,12.63
2023-04-08T21:42:43.199Z,12.13
2023-04-08T21:45:11.787Z,12.95
2023-04-08T21:47:40.103Z,13.20
2023-04-08T21:50:08.932Z,12.85
2023-04-08T21:52:37.675Z,11.73
2023-04-08T21:55:06.617Z,12.93
2023-04-08T21:57:35.039Z,11.90
2023-04-08T22:00:08.156Z,12.88
2023-04-08T22:02:43.929Z,12.65
2023-04-08T22:05:12.778Z,12.88
2023-04-08T22:07:40.962Z,13.25
2023-04-08T22:10:09.861Z,13.23
2023-04-08T22:12:38.116Z,14.98
2023-04-08T22:15:07.515Z,15.15
2023-04-08T22:17:35.970Z,15.95
2023-04-08T22:20:04.471Z,15.98
2023-04-08T22:22:32.835Z,15.77
2023-04-08T22:25:01.071Z,15.70
2023-04-08T22:27:29.532Z,15.10
2023-04-08T22:29:57.897Z,16.02
2023-04-08T22:32:26.433Z,16.05
2023-04-08T22:34:54.656Z,15.27
2023-04-08T22:37:22.889Z,15.38
2023-04-08T22:39:51.244Z,15.60
2023-04-08T22:42:19.583Z,13.70
2023-04-08T22:44:47.782Z,15.43
2023-04-08T22:47:16.103Z,15.98
2023-04-08T22:49:44.581Z,14.90
2023-04-08T22:52:12.844Z,17.35
2023-04-08T22:54:41.162Z,15.70
2023-04-08T22:57:09.369Z,15.20
2023-04-08T22:59:37.615Z,15.32
2023-04-08T23:02:06.025Z,14.52
2023-04-08T23:04:34.404Z,16.30
2023-04-08T23:07:02.725Z,15.50
2023-04-08T23:09:30.951Z,15.65
2023-04-08T23:11:59.245Z,15.30
2023-04-08T23:14:27.458Z,14.68
2023-04-08T23:16:56.015Z,15.70
2023-04-08T23:19:24.232Z,14.07
2023-04-08T23:21:52.473Z,13.75
2023-04-08T23:24:20.722Z,12.75
2023-04-08T23:26:48.997Z,12.30
2023-04-08T23:29:17.212Z,12.32
2023-04-08T23:31:45.551Z,12.23
2023-04-08T23:34:13.850Z,11.68
2023-04-08T23:36:42.129Z,12.52
2023-04-08T23:39:10.410Z,11.68
2023-04-08T23:41:38.710Z,10.23
2023-04-08T23:44:07.086Z,9.80
2023-04-08T23:46:35.405Z,9.93
2023-04-08T23:49:03.670Z,9.80
2023-04-08T23:51:31.989Z,9.10
2023-04-08T23:54:00.311Z,9.13
2023-04-08T23:56:28.747Z,8.63
2023-04-08T23:58:57.077Z,9.10
